Hrossey — VSTY6 — position and weather

sailwx.info

Track history (hours):
 
Tides and Currents Weather Stations Pressure Air Temp Water Temp Dewpoint Dewpoint Depression Visibility Wind Speed Wind Dir Waves Ship Positions

Hrossey

Operator: NorthLink Orkey & Shetland Ferries Ltd

Last reported at 2017-Apr-30 00:07 UTC. Time now 2017-Apr-30 14:49 UTC.
Position N 59°04' W 002°28'.

Length 125 m; draft 5.4 m.

Type: Passenger vessel. MMSI: 235448000.

Date/timePositionNaut miles runAvg speedWind from/ knotsBaromVisibWave heightAir tempDewpointWater temp
2017-Apr-30 00:07N 59°04' W 002°28'215.2
2017-Apr-30 00:00N 59°03' W 002°30'714.7
2017-Apr-29 23:30N 59°00' W 002°44'715.1
2017-Apr-29 23:00N 58°60' W 002°58'0 0.3
2017-Apr-29 22:30N 58°60' W 002°58'0 0.0
2017-Apr-29 22:00N 58°60' W 002°58'2 4.3
2017-Apr-29 21:31N 59°01' W 002°55'1120.1
2017-Apr-29 20:58N 58°56' W 002°36'8424.1
2017-Apr-29 17:28N 57°36' W 001°43'1123.3
2017-Apr-29 17:01N 57°25' W 001°43'1223.0
2017-Apr-29 16:30N 57°16' W 001°54'918.4
2017-Apr-29 16:01N 57°09' W 002°05'0 1.0
2017-Apr-29 15:30N 57°09' W 002°05'0 0.0
2017-Apr-29 15:00N 57°09' W 002°05'0 0.0
2017-Apr-29 14:31N 57°09' W 002°05'0 0.0
2017-Apr-29 13:30N 57°09' W 002°05'0 0.0
2017-Apr-29 13:00N 57°09' W 002°05'0 0.0
2017-Apr-29 12:30N 57°09' W 002°05'0 0.0
2017-Apr-29 12:00N 57°09' W 002°05'0 0.0
2017-Apr-29 11:31N 57°09' W 002°05'0 0.0
2017-Apr-29 11:01N 57°09' W 002°05'0 0.0
2017-Apr-29 10:30N 57°09' W 002°05'0 0.0
2017-Apr-29 10:00N 57°09' W 002°05'0 0.0
2017-Apr-29 09:30N 57°09' W 002°05'0 0.0
2017-Apr-29 09:00N 57°09' W 002°05'0 0.0
2017-Apr-29 08:30N 57°09' W 002°05'0 0.0
2017-Apr-29 08:01N 57°09' W 002°05'0 0.0
2017-Apr-29 07:31N 57°09' W 002°05'0 0.0
2017-Apr-29 07:00N 57°09' W 002°05'0 0.0
2017-Apr-29 06:30N 57°09' W 002°05'0 0.0
2017-Apr-29 06:00N 57°09' W 002°05'0 0.4
2017-Apr-29 05:30N 57°09' W 002°05'2 4.3
2017-Apr-29 05:00N 57°10' W 002°01'2018.8
2017-Apr-29 03:56N 57°26' W 001°40'920.6
2017-Apr-29 03:31N 57°35' W 001°39'8822.9
2017-Apr-28 23:41N 58°57' W 002°38'422.8
2017-Apr-28 23:30N 58°60' W 002°43'815.0
2017-Apr-28 22:59N 58°60' W 002°58'0 0.0
2017-Apr-28 22:18N 58°60' W 002°58'0 0.0
2017-Apr-28 22:00N 58°60' W 002°58'0 0.1
2017-Apr-28 21:30N 58°60' W 002°58'611.3
2017-Apr-28 21:00N 59°00' W 002°47'11 0.5
2017-Apr-28 00:24N 59°04' W 002°28'611.2
2017-Apr-27 23:50N 59°00' W 002°38'514.5
2017-Apr-27 23:30N 59°01' W 002°47'6 6.7
2017-Apr-27 22:39N 58°60' W 002°58'0 0.0
2017-Apr-27 22:22N 58°60' W 002°58'0 0.1
2017-Apr-27 21:51N 58°60' W 002°58'412.4
2017-Apr-27 21:30N 59°01' W 002°50'1019.7
2017-Apr-27 21:00N 58°54' W 002°36'7323.2
2017-Apr-27 17:51N 57°46' W 001°45'824.7
2017-Apr-27 17:30N 57°38' W 001°40'1223.8
2017-Apr-27 17:00N 57°26' W 001°40'1224.2
2017-Apr-27 16:30N 57°16' W 001°53'1020.1
2017-Apr-27 16:00N 57°08' W 002°04'1 1.4
2017-Apr-27 15:30N 57°09' W 002°05'0 0.0
2017-Apr-27 15:01N 57°09' W 002°05'0 0.0
2017-Apr-27 14:00N 57°09' W 002°05'0 0.0
2017-Apr-27 13:30N 57°09' W 002°05'0 0.0
2017-Apr-27 13:01N 57°09' W 002°05'0 0.0
2017-Apr-27 12:30N 57°09' W 002°05'0 0.0
2017-Apr-27 12:00N 57°09' W 002°05'0 0.0
2017-Apr-27 11:30N 57°09' W 002°05'0 0.0
2017-Apr-27 11:00N 57°09' W 002°05'0 0.0
2017-Apr-27 10:31N 57°09' W 002°05'0 0.0
2017-Apr-27 10:00N 57°09' W 002°05'0 0.0
2017-Apr-27 09:30N 57°09' W 002°05'0 0.0
2017-Apr-27 09:00N 57°09' W 002°05'0 0.0
2017-Apr-27 08:31N 57°09' W 002°05'0 0.0
2017-Apr-27 08:01N 57°09' W 002°05'0 0.0
2017-Apr-27 07:31N 57°09' W 002°05'0 1.0
2017-Apr-27 07:00N 57°09' W 002°05'4 7.7
2017-Apr-27 06:30N 57°11' W 001°59'1621.6
2017-Apr-27 05:45N 57°25' W 001°44'521.3
2017-Apr-27 05:30N 57°30' W 001°42'9422.8
2017-Apr-27 01:24N 58°59' W 002°39'821.3
2017-Apr-27 01:00N 59°01' W 002°54'2 1.3
2017-Apr-26 23:14N 58°60' W 002°58'210.6
2017-Apr-26 23:00N 59°01' W 002°54'14 1.3
2017-Apr-26 12:33N 59°03' W 002°28'122.4
2017-Apr-26 12:30N 59°03' W 002°29'1020.8
2017-Apr-26 12:00N 59°01' W 002°49'5 3.2
2017-Apr-26 10:31N 58°60' W 002°58'0 6.0
2017-Apr-26 10:30N 58°60' W 002°58'917.5
2017-Apr-26 10:00N 58°60' W 002°41'8721.5
2017-Apr-26 05:57N 57°38' W 001°43'1124.0
2017-Apr-26 05:30N 57°28' W 001°41'1223.9
2017-Apr-26 05:00N 57°17' W 001°52'1021.3
2017-Apr-26 04:30N 57°09' W 002°04'1 1.8
2017-Apr-26 04:00N 57°09' W 002°05'0 0.0
2017-Apr-26 03:30N 57°09' W 002°05'0 0.0
2017-Apr-26 03:00N 57°09' W 002°05'0 0.0
2017-Apr-26 02:31N 57°09' W 002°05'0 0.0
2017-Apr-26 02:00N 57°09' W 002°05'0 0.0
2017-Apr-26 01:31N 57°09' W 002°05'0 0.0
2017-Apr-26 01:00N 57°09' W 002°05'0 0.0
2017-Apr-26 00:30N 57°09' W 002°05'0 0.0
2017-Apr-26 00:00N 57°09' W 002°05'0 0.0
2017-Apr-25 23:30N 57°09' W 002°05'0 0.0
2017-Apr-25 23:01N 57°09' W 002°05'0 0.0
2017-Apr-25 22:30N 57°09' W 002°05'0 0.0
2017-Apr-25 22:00N 57°09' W 002°05'0 0.0
2017-Apr-25 21:30N 57°09' W 002°05'0 0.0
2017-Apr-25 21:00N 57°09' W 002°05'0 0.0
2017-Apr-25 20:30N 57°09' W 002°05'1 2.0
2017-Apr-25 20:00N 57°09' W 002°04'2 4.5
2017-Apr-25 19:30N 57°10' W 002°00'611.1
2017-Apr-25 19:00N 57°14' W 001°54'714.3
2017-Apr-25 18:30N 57°20' W 001°46'816.1
2017-Apr-25 18:00N 57°27' W 001°38'5 9.3
2017-Apr-25 17:30N 57°31' W 001°35'1121.5
2017-Apr-25 17:00N 57°22' W 001°45'1223.3
2017-Apr-25 16:30N 57°12' W 001°58'611.1
2017-Apr-25 16:00N 57°09' W 002°05'0 0.0
2017-Apr-25 15:31N 57°09' W 002°05'0 0.0
2017-Apr-25 15:01N 57°09' W 002°05'0 0.0
2017-Apr-25 14:30N 57°09' W 002°05'0 0.0
2017-Apr-25 13:30N 57°09' W 002°05'0 0.0
2017-Apr-25 13:00N 57°09' W 002°05'0 0.0
2017-Apr-25 12:30N 57°09' W 002°05'0 0.0
2017-Apr-25 12:00N 57°09' W 002°05'0 0.0
2017-Apr-25 11:30N 57°09' W 002°05'0 0.0
2017-Apr-25 11:00N 57°09' W 002°05'0 0.0
2017-Apr-25 10:30N 57°09' W 002°05'0 0.0
2017-Apr-25 10:00N 57°09' W 002°05'0 0.0
2017-Apr-25 09:30N 57°09' W 002°05'0 0.0
2017-Apr-25 09:01N 57°09' W 002°05'0 0.0
2017-Apr-25 08:31N 57°09' W 002°05'0 0.0
2017-Apr-25 08:00N 57°09' W 002°05'0 0.0
2017-Apr-25 07:30N 57°09' W 002°05'0 0.0
2017-Apr-25 07:00N 57°09' W 002°05'0 0.0
2017-Apr-25 06:30N 57°09' W 002°05'0 0.0
2017-Apr-25 06:00N 57°09' W 002°05'1 1.4
2017-Apr-25 05:30N 57°08' W 002°04'3 6.7
2017-Apr-25 05:00N 57°11' W 001°59'816.1
2017-Apr-25 04:30N 57°18' W 001°52'1018.5
2017-Apr-25 03:58N 57°26' W 001°42'919.4
2017-Apr-25 03:30N 57°35' W 001°37'8820.6
2017-Apr-24 23:15N 58°56' W 002°37'520.2
2017-Apr-24 23:00N 59°00' W 002°44'714.5
2017-Apr-24 22:30N 58°60' W 002°58'0 0.1
2017-Apr-24 22:00N 58°60' W 002°58'0 0.0
2017-Apr-24 21:30N 58°60' W 002°58'4 8.6
2017-Apr-24 21:00N 59°01' W 002°50'12 0.6
2017-Apr-24 00:10N 59°04' W 002°28'317.3
2017-Apr-24 00:00N 59°02' W 002°31'816.7
2017-Apr-23 23:30N 59°01' W 002°47'6 4.7
2017-Apr-23 22:17N 58°60' W 002°58'1 5.5
2017-Apr-23 22:00N 59°01' W 002°57'1020.7
2017-Apr-23 21:30N 58°57' W 002°39'8522.5
2017-Apr-23 17:44N 57°38' W 001°42'523.8
2017-Apr-23 17:30N 57°33' W 001°40'1423.6
2017-Apr-23 16:55N 57°20' W 001°50'1024.2
2017-Apr-23 16:30N 57°11' W 001°59'4 8.2
2017-Apr-23 16:00N 57°09' W 002°05'0 0.0
2017-Apr-23 15:30N 57°09' W 002°05'0 0.0
2017-Apr-23 15:00N 57°09' W 002°05'0 0.0
2017-Apr-23 14:00N 57°09' W 002°05'0 0.0
2017-Apr-23 13:30N 57°09' W 002°05'0 0.0
2017-Apr-23 13:01N 57°09' W 002°05'0 0.0
2017-Apr-23 12:30N 57°09' W 002°05'0 0.0
2017-Apr-23 12:01N 57°09' W 002°05'0 0.0
2017-Apr-23 11:30N 57°09' W 002°05'0 0.0
2017-Apr-23 11:00N 57°09' W 002°05'0 0.0
2017-Apr-23 10:30N 57°09' W 002°05'0 0.0
2017-Apr-23 10:00N 57°09' W 002°05'0 0.0
2017-Apr-23 09:30N 57°09' W 002°05'0 0.0
2017-Apr-23 09:00N 57°09' W 002°05'0 0.0
2017-Apr-23 08:30N 57°09' W 002°05'0 0.0
2017-Apr-23 07:59N 57°09' W 002°05'0 0.0
2017-Apr-23 07:31N 57°09' W 002°05'0 0.0
2017-Apr-23 07:00N 57°09' W 002°05'0 0.0
2017-Apr-23 06:30N 57°09' W 002°05'0 0.0
2017-Apr-23 06:00N 57°09' W 002°05'1 1.0
2017-Apr-23 05:30N 57°09' W 002°05'612.9
2017-Apr-23 05:00N 57°13' W 001°56'1317.9
2017-Apr-23 04:18N 57°23' W 001°42'412.6
2017-Apr-23 04:00N 57°26' W 001°38'612.0
2017-Apr-23 03:30N 57°32' W 001°36'16 0.5
2017-Apr-21 21:29N 57°48' W 001°37'511.3
2017-Apr-21 21:00N 57°43' W 001°37'611.2
2017-Apr-21 20:30N 57°37' W 001°37'611.1
2017-Apr-21 20:00N 57°32' W 001°37'611.2
2017-Apr-21 19:30N 57°26' W 001°39'612.5
2017-Apr-21 19:00N 57°21' W 001°45'713.1
2017-Apr-21 18:30N 57°16' W 001°52'816.3
2017-Apr-21 18:00N 57°09' W 002°02'2 4.2
2017-Apr-21 17:31N 57°09' W 002°05'0 0.0
2017-Apr-21 17:01N 57°09' W 002°05'0 0.0
2017-Apr-21 16:30N 57°09' W 002°05'0 0.0
2017-Apr-21 16:00N 57°09' W 002°05'0 0.0
2017-Apr-21 15:30N 57°09' W 002°05'0 0.0
2017-Apr-21 15:00N 57°09' W 002°05'0 0.0
2017-Apr-21 14:31N 57°09' W 002°05'0 0.0
2017-Apr-21 13:30N 57°09' W 002°05'0 0.0
2017-Apr-21 13:00N 57°09' W 002°05'0 0.0
2017-Apr-21 12:30N 57°09' W 002°05'0 0.0
2017-Apr-21 12:00N 57°09' W 002°05'0 0.0
2017-Apr-21 11:31N 57°09' W 002°05'0 0.0
2017-Apr-21 11:00N 57°09' W 002°05'0 0.0
2017-Apr-21 10:30N 57°09' W 002°05'0 0.0
2017-Apr-21 10:00N 57°09' W 002°05'0 0.0
2017-Apr-21 09:30N 57°09' W 002°05'0 0.0
2017-Apr-21 09:00N 57°09' W 002°05'0 0.0
2017-Apr-21 08:30N 57°09' W 002°05'0 0.0
2017-Apr-21 08:00N 57°09' W 002°05'0 0.0
2017-Apr-21 07:30N 57°09' W 002°05'0 0.0
2017-Apr-21 07:01N 57°09' W 002°05'0 0.0
2017-Apr-21 06:30N 57°09' W 002°05'0 0.0
2017-Apr-21 06:01N 57°09' W 002°05'0 0.9
2017-Apr-21 05:30N 57°09' W 002°05'714.2
2017-Apr-21 05:01N 57°13' W 001°55'815.6
2017-Apr-21 04:29N 57°20' W 001°45'612.8
2017-Apr-21 04:00N 57°25' W 001°39'611.1
2017-Apr-21 03:27N 57°30' W 001°34'613.9
2017-Apr-21 03:00N 57°36' W 001°34'  
Track history (hours):
 
Tides and Currents Weather Stations Pressure Air Temp Water Temp Dewpoint Dewpoint Depression Visibility Wind Speed Wind Dir Waves Ship Positions

Hrossey

Operator: NorthLink Orkey & Shetland Ferries Ltd

Last reported at 2017-Apr-30 00:07 UTC. Time now 2017-Apr-30 14:49 UTC.
Position N 59°04' W 002°28'.

Length 125 m; draft 5.4 m.

Type: Passenger vessel. MMSI: 235448000.

Date/timePositionNaut miles runAvg speedWind from/ knotsBaromVisibWave heightAir tempDewpointWater temp
2017-Apr-30 00:07N 59°04' W 002°28'215.2
2017-Apr-30 00:00N 59°03' W 002°30'714.7
2017-Apr-29 23:30N 59°00' W 002°44'715.1
2017-Apr-29 23:00N 58°60' W 002°58'0 0.3
2017-Apr-29 22:30N 58°60' W 002°58'0 0.0
2017-Apr-29 22:00N 58°60' W 002°58'2 4.3
2017-Apr-29 21:31N 59°01' W 002°55'1120.1
2017-Apr-29 20:58N 58°56' W 002°36'8424.1
2017-Apr-29 17:28N 57°36' W 001°43'1123.3
2017-Apr-29 17:01N 57°25' W 001°43'1223.0
2017-Apr-29 16:30N 57°16' W 001°54'918.4
2017-Apr-29 16:01N 57°09' W 002°05'0 1.0
2017-Apr-29 15:30N 57°09' W 002°05'0 0.0
2017-Apr-29 15:00N 57°09' W 002°05'0 0.0
2017-Apr-29 14:31N 57°09' W 002°05'0 0.0
2017-Apr-29 13:30N 57°09' W 002°05'0 0.0
2017-Apr-29 13:00N 57°09' W 002°05'0 0.0
2017-Apr-29 12:30N 57°09' W 002°05'0 0.0
2017-Apr-29 12:00N 57°09' W 002°05'0 0.0
2017-Apr-29 11:31N 57°09' W 002°05'0 0.0
2017-Apr-29 11:01N 57°09' W 002°05'0 0.0
2017-Apr-29 10:30N 57°09' W 002°05'0 0.0
2017-Apr-29 10:00N 57°09' W 002°05'0 0.0
2017-Apr-29 09:30N 57°09' W 002°05'0 0.0
2017-Apr-29 09:00N 57°09' W 002°05'0 0.0
2017-Apr-29 08:30N 57°09' W 002°05'0 0.0
2017-Apr-29 08:01N 57°09' W 002°05'0 0.0
2017-Apr-29 07:31N 57°09' W 002°05'0 0.0
2017-Apr-29 07:00N 57°09' W 002°05'0 0.0
2017-Apr-29 06:30N 57°09' W 002°05'0 0.0
2017-Apr-29 06:00N 57°09' W 002°05'0 0.4
2017-Apr-29 05:30N 57°09' W 002°05'2 4.3
2017-Apr-29 05:00N 57°10' W 002°01'2018.8
2017-Apr-29 03:56N 57°26' W 001°40'920.6
2017-Apr-29 03:31N 57°35' W 001°39'8822.9
2017-Apr-28 23:41N 58°57' W 002°38'422.8
2017-Apr-28 23:30N 58°60' W 002°43'815.0
2017-Apr-28 22:59N 58°60' W 002°58'0 0.0
2017-Apr-28 22:18N 58°60' W 002°58'0 0.0
2017-Apr-28 22:00N 58°60' W 002°58'0 0.1
2017-Apr-28 21:30N 58°60' W 002°58'611.3
2017-Apr-28 21:00N 59°00' W 002°47'11 0.5
2017-Apr-28 00:24N 59°04' W 002°28'611.2
2017-Apr-27 23:50N 59°00' W 002°38'514.5
2017-Apr-27 23:30N 59°01' W 002°47'6 6.7
2017-Apr-27 22:39N 58°60' W 002°58'0 0.0
2017-Apr-27 22:22N 58°60' W 002°58'0 0.1
2017-Apr-27 21:51N 58°60' W 002°58'412.4
2017-Apr-27 21:30N 59°01' W 002°50'1019.7
2017-Apr-27 21:00N 58°54' W 002°36'7323.2
2017-Apr-27 17:51N 57°46' W 001°45'824.7
2017-Apr-27 17:30N 57°38' W 001°40'1223.8
2017-Apr-27 17:00N 57°26' W 001°40'1224.2
2017-Apr-27 16:30N 57°16' W 001°53'1020.1
2017-Apr-27 16:00N 57°08' W 002°04'1 1.4
2017-Apr-27 15:30N 57°09' W 002°05'0 0.0
2017-Apr-27 15:01N 57°09' W 002°05'0 0.0
2017-Apr-27 14:00N 57°09' W 002°05'0 0.0
2017-Apr-27 13:30N 57°09' W 002°05'0 0.0
2017-Apr-27 13:01N 57°09' W 002°05'0 0.0
2017-Apr-27 12:30N 57°09' W 002°05'0 0.0
2017-Apr-27 12:00N 57°09' W 002°05'0 0.0
2017-Apr-27 11:30N 57°09' W 002°05'0 0.0
2017-Apr-27 11:00N 57°09' W 002°05'0 0.0
2017-Apr-27 10:31N 57°09' W 002°05'0 0.0
2017-Apr-27 10:00N 57°09' W 002°05'0 0.0
2017-Apr-27 09:30N 57°09' W 002°05'0 0.0
2017-Apr-27 09:00N 57°09' W 002°05'0 0.0
2017-Apr-27 08:31N 57°09' W 002°05'0 0.0
2017-Apr-27 08:01N 57°09' W 002°05'0 0.0
2017-Apr-27 07:31N 57°09' W 002°05'0 1.0
2017-Apr-27 07:00N 57°09' W 002°05'4 7.7
2017-Apr-27 06:30N 57°11' W 001°59'1621.6
2017-Apr-27 05:45N 57°25' W 001°44'521.3
2017-Apr-27 05:30N 57°30' W 001°42'9422.8
2017-Apr-27 01:24N 58°59' W 002°39'821.3
2017-Apr-27 01:00N 59°01' W 002°54'2 1.3
2017-Apr-26 23:14N 58°60' W 002°58'210.6
2017-Apr-26 23:00N 59°01' W 002°54'14 1.3
2017-Apr-26 12:33N 59°03' W 002°28'122.4
2017-Apr-26 12:30N 59°03' W 002°29'1020.8
2017-Apr-26 12:00N 59°01' W 002°49'5 3.2
2017-Apr-26 10:31N 58°60' W 002°58'0 6.0
2017-Apr-26 10:30N 58°60' W 002°58'917.5
2017-Apr-26 10:00N 58°60' W 002°41'8721.5
2017-Apr-26 05:57N 57°38' W 001°43'1124.0
2017-Apr-26 05:30N 57°28' W 001°41'1223.9
2017-Apr-26 05:00N 57°17' W 001°52'1021.3
2017-Apr-26 04:30N 57°09' W 002°04'1 1.8
2017-Apr-26 04:00N 57°09' W 002°05'0 0.0
2017-Apr-26 03:30N 57°09' W 002°05'0 0.0
2017-Apr-26 03:00N 57°09' W 002°05'0 0.0
2017-Apr-26 02:31N 57°09' W 002°05'0 0.0
2017-Apr-26 02:00N 57°09' W 002°05'0 0.0
2017-Apr-26 01:31N 57°09' W 002°05'0 0.0
2017-Apr-26 01:00N 57°09' W 002°05'0 0.0
2017-Apr-26 00:30N 57°09' W 002°05'0 0.0
2017-Apr-26 00:00N 57°09' W 002°05'0 0.0
2017-Apr-25 23:30N 57°09' W 002°05'0 0.0
2017-Apr-25 23:01N 57°09' W 002°05'0 0.0
2017-Apr-25 22:30N 57°09' W 002°05'0 0.0
2017-Apr-25 22:00N 57°09' W 002°05'0 0.0
2017-Apr-25 21:30N 57°09' W 002°05'0 0.0
2017-Apr-25 21:00N 57°09' W 002°05'0 0.0
2017-Apr-25 20:30N 57°09' W 002°05'1 2.0
2017-Apr-25 20:00N 57°09' W 002°04'2 4.5
2017-Apr-25 19:30N 57°10' W 002°00'611.1
2017-Apr-25 19:00N 57°14' W 001°54'714.3
2017-Apr-25 18:30N 57°20' W 001°46'816.1
2017-Apr-25 18:00N 57°27' W 001°38'5 9.3
2017-Apr-25 17:30N 57°31' W 001°35'1121.5
2017-Apr-25 17:00N 57°22' W 001°45'1223.3
2017-Apr-25 16:30N 57°12' W 001°58'611.1
2017-Apr-25 16:00N 57°09' W 002°05'0 0.0
2017-Apr-25 15:31N 57°09' W 002°05'0 0.0
2017-Apr-25 15:01N 57°09' W 002°05'0 0.0
2017-Apr-25 14:30N 57°09' W 002°05'0 0.0
2017-Apr-25 13:30N 57°09' W 002°05'0 0.0
2017-Apr-25 13:00N 57°09' W 002°05'0 0.0
2017-Apr-25 12:30N 57°09' W 002°05'0 0.0
2017-Apr-25 12:00N 57°09' W 002°05'0 0.0
2017-Apr-25 11:30N 57°09' W 002°05'0 0.0
2017-Apr-25 11:00N 57°09' W 002°05'0 0.0
2017-Apr-25 10:30N 57°09' W 002°05'0 0.0
2017-Apr-25 10:00N 57°09' W 002°05'0 0.0
2017-Apr-25 09:30N 57°09' W 002°05'0 0.0
2017-Apr-25 09:01N 57°09' W 002°05'0 0.0
2017-Apr-25 08:31N 57°09' W 002°05'0 0.0
2017-Apr-25 08:00N 57°09' W 002°05'0 0.0
2017-Apr-25 07:30N 57°09' W 002°05'0 0.0
2017-Apr-25 07:00N 57°09' W 002°05'0 0.0
2017-Apr-25 06:30N 57°09' W 002°05'0 0.0
2017-Apr-25 06:00N 57°09' W 002°05'1 1.4
2017-Apr-25 05:30N 57°08' W 002°04'3 6.7
2017-Apr-25 05:00N 57°11' W 001°59'816.1
2017-Apr-25 04:30N 57°18' W 001°52'1018.5
2017-Apr-25 03:58N 57°26' W 001°42'919.4
2017-Apr-25 03:30N 57°35' W 001°37'8820.6
2017-Apr-24 23:15N 58°56' W 002°37'520.2
2017-Apr-24 23:00N 59°00' W 002°44'714.5
2017-Apr-24 22:30N 58°60' W 002°58'0 0.1
2017-Apr-24 22:00N 58°60' W 002°58'0 0.0
2017-Apr-24 21:30N 58°60' W 002°58'4 8.6
2017-Apr-24 21:00N 59°01' W 002°50'12 0.6
2017-Apr-24 00:10N 59°04' W 002°28'317.3
2017-Apr-24 00:00N 59°02' W 002°31'816.7
2017-Apr-23 23:30N 59°01' W 002°47'6 4.7
2017-Apr-23 22:17N 58°60' W 002°58'1 5.5
2017-Apr-23 22:00N 59°01' W 002°57'1020.7
2017-Apr-23 21:30N 58°57' W 002°39'8522.5
2017-Apr-23 17:44N 57°38' W 001°42'523.8
2017-Apr-23 17:30N 57°33' W 001°40'1423.6
2017-Apr-23 16:55N 57°20' W 001°50'1024.2
2017-Apr-23 16:30N 57°11' W 001°59'4 8.2
2017-Apr-23 16:00N 57°09' W 002°05'0 0.0
2017-Apr-23 15:30N 57°09' W 002°05'0 0.0
2017-Apr-23 15:00N 57°09' W 002°05'0 0.0
2017-Apr-23 14:00N 57°09' W 002°05'0 0.0
2017-Apr-23 13:30N 57°09' W 002°05'0 0.0
2017-Apr-23 13:01N 57°09' W 002°05'0 0.0
2017-Apr-23 12:30N 57°09' W 002°05'0 0.0
2017-Apr-23 12:01N 57°09' W 002°05'0 0.0
2017-Apr-23 11:30N 57°09' W 002°05'0 0.0
2017-Apr-23 11:00N 57°09' W 002°05'0 0.0
2017-Apr-23 10:30N 57°09' W 002°05'0 0.0
2017-Apr-23 10:00N 57°09' W 002°05'0 0.0
2017-Apr-23 09:30N 57°09' W 002°05'0 0.0
2017-Apr-23 09:00N 57°09' W 002°05'0 0.0
2017-Apr-23 08:30N 57°09' W 002°05'0 0.0
2017-Apr-23 07:59N 57°09' W 002°05'0 0.0
2017-Apr-23 07:31N 57°09' W 002°05'0 0.0
2017-Apr-23 07:00N 57°09' W 002°05'0 0.0
2017-Apr-23 06:30N 57°09' W 002°05'0 0.0
2017-Apr-23 06:00N 57°09' W 002°05'1 1.0
2017-Apr-23 05:30N 57°09' W 002°05'612.9
2017-Apr-23 05:00N 57°13' W 001°56'1317.9
2017-Apr-23 04:18N 57°23' W 001°42'412.6
2017-Apr-23 04:00N 57°26' W 001°38'612.0
2017-Apr-23 03:30N 57°32' W 001°36'16 0.5
2017-Apr-21 21:29N 57°48' W 001°37'511.3
2017-Apr-21 21:00N 57°43' W 001°37'611.2
2017-Apr-21 20:30N 57°37' W 001°37'611.1
2017-Apr-21 20:00N 57°32' W 001°37'611.2
2017-Apr-21 19:30N 57°26' W 001°39'612.5
2017-Apr-21 19:00N 57°21' W 001°45'713.1
2017-Apr-21 18:30N 57°16' W 001°52'816.3
2017-Apr-21 18:00N 57°09' W 002°02'2 4.2
2017-Apr-21 17:31N 57°09' W 002°05'0 0.0
2017-Apr-21 17:01N 57°09' W 002°05'0 0.0
2017-Apr-21 16:30N 57°09' W 002°05'0 0.0
2017-Apr-21 16:00N 57°09' W 002°05'0 0.0
2017-Apr-21 15:30N 57°09' W 002°05'0 0.0
2017-Apr-21 15:00N 57°09' W 002°05'0 0.0
2017-Apr-21 14:31N 57°09' W 002°05'0 0.0
2017-Apr-21 13:30N 57°09' W 002°05'0 0.0
2017-Apr-21 13:00N 57°09' W 002°05'0 0.0
2017-Apr-21 12:30N 57°09' W 002°05'0 0.0
2017-Apr-21 12:00N 57°09' W 002°05'0 0.0
2017-Apr-21 11:31N 57°09' W 002°05'0 0.0
2017-Apr-21 11:00N 57°09' W 002°05'0 0.0
2017-Apr-21 10:30N 57°09' W 002°05'0 0.0
2017-Apr-21 10:00N 57°09' W 002°05'0 0.0
2017-Apr-21 09:30N 57°09' W 002°05'0 0.0
2017-Apr-21 09:00N 57°09' W 002°05'0 0.0
2017-Apr-21 08:30N 57°09' W 002°05'0 0.0
2017-Apr-21 08:00N 57°09' W 002°05'0 0.0
2017-Apr-21 07:30N 57°09' W 002°05'0 0.0
2017-Apr-21 07:01N 57°09' W 002°05'0 0.0
2017-Apr-21 06:30N 57°09' W 002°05'0 0.0
2017-Apr-21 06:01N 57°09' W 002°05'0 0.9
2017-Apr-21 05:30N 57°09' W 002°05'714.2
2017-Apr-21 05:01N 57°13' W 001°55'815.6
2017-Apr-21 04:29N 57°20' W 001°45'612.8
2017-Apr-21 04:00N 57°25' W 001°39'611.1
2017-Apr-21 03:27N 57°30' W 001°34'613.9
2017-Apr-21 03:00N 57°36' W 001°34'  

Dump ship's entire track history